sensor_id;sensor_type;location;lat;lon;timestamp;P1;durP1;ratioP1;P2;durP2;ratioP2
846;SDS011;410;48.954;9.474;2024-03-02T00:00:18;40.03;;;12.05;;
846;SDS011;410;48.954;9.474;2024-03-02T00:02:23;33.58;;;12.18;;
846;SDS011;410;48.954;9.474;2024-03-02T00:04:27;24.05;;;12.10;;
846;SDS011;410;48.954;9.474;2024-03-02T00:06:30;22.90;;;10.20;;
846;SDS011;410;48.954;9.474;2024-03-02T00:08:33;21.38;;;11.63;;
846;SDS011;410;48.954;9.474;2024-03-02T00:10:37;18.90;;;10.63;;
846;SDS011;410;48.954;9.474;2024-03-02T00:12:42;37.35;;;13.00;;
846;SDS011;410;48.954;9.474;2024-03-02T00:14:45;27.55;;;12.13;;
846;SDS011;410;48.954;9.474;2024-03-02T00:16:50;44.40;;;13.10;;
846;SDS011;410;48.954;9.474;2024-03-02T00:18:54;21.75;;;12.35;;
846;SDS011;410;48.954;9.474;2024-03-02T00:20:58;25.50;;;13.00;;
846;SDS011;410;48.954;9.474;2024-03-02T00:23:02;18.95;;;12.70;;
846;SDS011;410;48.954;9.474;2024-03-02T00:25:07;20.52;;;12.00;;
846;SDS011;410;48.954;9.474;2024-03-02T00:27:12;22.27;;;13.38;;
846;SDS011;410;48.954;9.474;2024-03-02T00:29:17;29.60;;;12.52;;
846;SDS011;410;48.954;9.474;2024-03-02T00:31:21;25.17;;;12.50;;
846;SDS011;410;48.954;9.474;2024-03-02T00:33:27;16.75;;;13.07;;
846;SDS011;410;48.954;9.474;2024-03-02T00:35:32;14.90;;;11.02;;
846;SDS011;410;48.954;9.474;2024-03-02T00:37:36;18.27;;;11.75;;
846;SDS011;410;48.954;9.474;2024-03-02T00:39:40;18.75;;;12.65;;
846;SDS011;410;48.954;9.474;2024-03-02T00:41:43;17.67;;;12.05;;
846;SDS011;410;48.954;9.474;2024-03-02T00:43:47;18.83;;;12.57;;
846;SDS011;410;48.954;9.474;2024-03-02T00:45:58;16.40;;;12.32;;
846;SDS011;410;48.954;9.474;2024-03-02T00:48:01;16.80;;;11.30;;
846;SDS011;410;48.954;9.474;2024-03-02T00:50:10;19.27;;;13.02;;
846;SDS011;410;48.954;9.474;2024-03-02T00:52:24;19.52;;;12.68;;
846;SDS011;410;48.954;9.474;2024-03-02T00:54:27;22.52;;;13.13;;
846;SDS011;410;48.954;9.474;2024-03-02T00:56:31;27.73;;;11.95;;
846;SDS011;410;48.954;9.474;2024-03-02T00:58:34;23.30;;;12.52;;
846;SDS011;410;48.954;9.474;2024-03-02T01:00:37;24.45;;;12.40;;
846;SDS011;410;48.954;9.474;2024-03-02T01:02:41;23.45;;;11.57;;
846;SDS011;410;48.954;9.474;2024-03-02T01:04:46;23.17;;;12.27;;
846;SDS011;410;48.954;9.474;2024-03-02T01:06:50;33.70;;;13.23;;
846;SDS011;410;48.954;9.474;2024-03-02T01:08:55;22.75;;;11.65;;
846;SDS011;410;48.954;9.474;2024-03-02T01:10:58;23.90;;;11.73;;
846;SDS011;410;48.954;9.474;2024-03-02T01:13:00;17.67;;;11.50;;
846;SDS011;410;48.954;9.474;2024-03-02T01:15:04;21.30;;;12.18;;
846;SDS011;410;48.954;9.474;2024-03-02T01:17:10;21.20;;;13.18;;
846;SDS011;410;48.954;9.474;2024-03-02T01:19:13;14.48;;;10.82;;
846;SDS011;410;48.954;9.474;2024-03-02T01:21:17;14.00;;;9.90;;
846;SDS011;410;48.954;9.474;2024-03-02T01:23:22;17.50;;;12.20;;
846;SDS011;410;48.954;9.474;2024-03-02T01:25:26;18.48;;;12.35;;
846;SDS011;410;48.954;9.474;2024-03-02T01:27:29;18.05;;;12.43;;
846;SDS011;410;48.954;9.474;2024-03-02T01:29:32;19.40;;;12.75;;
846;SDS011;410;48.954;9.474;2024-03-02T01:31:35;14.05;;;11.05;;
846;SDS011;410;48.954;9.474;2024-03-02T01:33:39;18.92;;;11.88;;
846;SDS011;410;48.954;9.474;2024-03-02T01:35:42;19.80;;;11.50;;
846;SDS011;410;48.954;9.474;2024-03-02T01:37:44;15.93;;;11.10;;
846;SDS011;410;48.954;9.474;2024-03-02T01:39:49;18.67;;;12.70;;
846;SDS011;410;48.954;9.474;2024-03-02T01:41:52;19.30;;;12.27;;
846;SDS011;410;48.954;9.474;2024-03-02T01:43:56;19.83;;;11.98;;
846;SDS011;410;48.954;9.474;2024-03-02T01:46:00;20.10;;;12.65;;
846;SDS011;410;48.954;9.474;2024-03-02T01:48:04;23.83;;;14.30;;
846;SDS011;410;48.954;9.474;2024-03-02T01:50:09;21.13;;;13.60;;
846;SDS011;410;48.954;9.474;2024-03-02T01:52:13;24.98;;;13.32;;
846;SDS011;410;48.954;9.474;2024-03-02T01:54:16;30.23;;;15.25;;
846;SDS011;410;48.954;9.474;2024-03-02T01:56:21;23.63;;;14.20;;
846;SDS011;410;48.954;9.474;2024-03-02T01:58:24;36.17;;;17.20;;
846;SDS011;410;48.954;9.474;2024-03-02T02:00:27;31.20;;;17.23;;
846;SDS011;410;48.954;9.474;2024-03-02T02:02:32;32.95;;;16.30;;
846;SDS011;410;48.954;9.474;2024-03-02T02:04:35;30.00;;;17.73;;
846;SDS011;410;48.954;9.474;2024-03-02T02:06:38;36.55;;;17.58;;
846;SDS011;410;48.954;9.474;2024-03-02T02:08:41;34.40;;;17.20;;
846;SDS011;410;48.954;9.474;2024-03-02T02:10:44;32.65;;;16.48;;
846;SDS011;410;48.954;9.474;2024-03-02T02:12:49;35.00;;;17.48;;
846;SDS011;410;48.954;9.474;2024-03-02T02:14:52;30.42;;;17.63;;
846;SDS011;410;48.954;9.474;2024-03-02T02:16:55;36.55;;;16.88;;
846;SDS011;410;48.954;9.474;2024-03-02T02:18:59;27.20;;;15.77;;
846;SDS011;410;48.954;9.474;2024-03-02T02:21:02;25.70;;;16.05;;
846;SDS011;410;48.954;9.474;2024-03-02T02:23:07;37.13;;;15.93;;
846;SDS011;410;48.954;9.474;2024-03-02T02:25:12;41.90;;;16.90;;
846;SDS011;410;48.954;9.474;2024-03-02T02:27:15;54.85;;;16.23;;
846;SDS011;410;48.954;9.474;2024-03-02T02:29:18;24.88;;;15.35;;
846;SDS011;410;48.954;9.474;2024-03-02T02:31:21;24.30;;;14.05;;
846;SDS011;410;48.954;9.474;2024-03-02T02:33:24;37.50;;;16.05;;
846;SDS011;410;48.954;9.474;2024-03-02T02:35:28;27.95;;;14.18;;
846;SDS011;410;48.954;9.474;2024-03-02T02:37:31;20.98;;;13.05;;
846;SDS011;410;48.954;9.474;2024-03-02T02:39:35;23.17;;;14.85;;
846;SDS011;410;48.954;9.474;2024-03-02T02:41:38;19.90;;;13.23;;
846;SDS011;410;48.954;9.474;2024-03-02T02:43:40;24.52;;;14.77;;
846;SDS011;410;48.954;9.474;2024-03-02T02:45:43;23.40;;;14.63;;
846;SDS011;410;48.954;9.474;2024-03-02T02:47:47;19.38;;;13.20;;
846;SDS011;410;48.954;9.474;2024-03-02T02:49:50;24.20;;;13.63;;
846;SDS011;410;48.954;9.474;2024-03-02T02:51:53;40.88;;;12.70;;
846;SDS011;410;48.954;9.474;2024-03-02T02:53:56;21.77;;;14.07;;
846;SDS011;410;48.954;9.474;2024-03-02T02:56:00;22.77;;;13.50;;
846;SDS011;410;48.954;9.474;2024-03-02T02:58:05;22.77;;;14.10;;
846;SDS011;410;48.954;9.474;2024-03-02T03:00:08;19.35;;;12.95;;
846;SDS011;410;48.954;9.474;2024-03-02T03:02:15;17.63;;;11.55;;
846;SDS011;410;48.954;9.474;2024-03-02T03:04:19;15.90;;;10.65;;
846;SDS011;410;48.954;9.474;2024-03-02T03:06:22;16.40;;;11.27;;
846;SDS011;410;48.954;9.474;2024-03-02T03:08:25;19.63;;;12.00;;
846;SDS011;410;48.954;9.474;2024-03-02T03:10:27;20.45;;;12.85;;
846;SDS011;410;48.954;9.474;2024-03-02T03:12:32;19.23;;;12.10;;
846;SDS011;410;48.954;9.474;2024-03-02T03:14:35;14.07;;;11.07;;
846;SDS011;410;48.954;9.474;2024-03-02T03:16:39;15.13;;;10.52;;
846;SDS011;410;48.954;9.474;2024-03-02T03:18:42;22.90;;;11.73;;
846;SDS011;410;48.954;9.474;2024-03-02T03:20:44;19.40;;;11.10;;
846;SDS011;410;48.954;9.474;2024-03-02T03:22:48;19.38;;;11.73;;
846;SDS011;410;48.954;9.474;2024-03-02T03:24:51;37.05;;;11.90;;
846;SDS011;410;48.954;9.474;2024-03-02T03:26:56;18.17;;;11.20;;
846;SDS011;410;48.954;9.474;2024-03-02T03:29:01;17.30;;;10.75;;
846;SDS011;410;48.954;9.474;2024-03-02T03:31:04;21.23;;;10.70;;
846;SDS011;410;48.954;9.474;2024-03-02T03:33:10;22.23;;;10.85;;
846;SDS011;410;48.954;9.474;2024-03-02T03:35:13;27.15;;;10.75;;
846;SDS011;410;48.954;9.474;2024-03-02T03:37:16;30.10;;;11.23;;
846;SDS011;410;48.954;9.474;2024-03-02T03:39:21;23.60;;;11.27;;
846;SDS011;410;48.954;9.474;2024-03-02T03:41:23;22.92;;;12.55;;
846;SDS011;410;48.954;9.474;2024-03-02T03:43:26;25.55;;;11.73;;
846;SDS011;410;48.954;9.474;2024-03-02T03:45:30;22.45;;;11.95;;
846;SDS011;410;48.954;9.474;2024-03-02T03:47:34;27.80;;;11.85;;
846;SDS011;410;48.954;9.474;2024-03-02T03:49:37;29.63;;;11.88;;
846;SDS011;410;48.954;9.474;2024-03-02T03:51:41;26.17;;;11.82;;
846;SDS011;410;48.954;9.474;2024-03-02T03:53:44;27.42;;;12.15;;
846;SDS011;410;48.954;9.474;2024-03-02T03:55:47;33.25;;;12.30;;
846;SDS011;410;48.954;9.474;2024-03-02T03:57:52;24.90;;;11.90;;
846;SDS011;410;48.954;9.474;2024-03-02T03:59:55;28.48;;;12.85;;
846;SDS011;410;48.954;9.474;2024-03-02T04:01:59;32.40;;;13.00;;
846;SDS011;410;48.954;9.474;2024-03-02T04:04:02;30.90;;;13.45;;
846;SDS011;410;48.954;9.474;2024-03-02T04:06:05;33.83;;;13.88;;
846;SDS011;410;48.954;9.474;2024-03-02T04:08:09;31.02;;;12.85;;
846;SDS011;410;48.954;9.474;2024-03-02T04:10:13;51.75;;;13.80;;
846;SDS011;410;48.954;9.474;2024-03-02T04:12:15;26.38;;;12.15;;
846;SDS011;410;48.954;9.474;2024-03-02T04:14:19;35.38;;;11.75;;
846;SDS011;410;48.954;9.474;2024-03-02T04:16:23;29.73;;;13.63;;
846;SDS011;410;48.954;9.474;2024-03-02T04:18:27;39.30;;;13.32;;
846;SDS011;410;48.954;9.474;2024-03-02T04:20:30;29.58;;;12.95;;
846;SDS011;410;48.954;9.474;2024-03-02T04:22:36;23.00;;;13.00;;
846;SDS011;410;48.954;9.474;2024-03-02T04:24:39;31.77;;;12.40;;
846;SDS011;410;48.954;9.474;2024-03-02T04:26:42;19.65;;;12.10;;
846;SDS011;410;48.954;9.474;2024-03-02T04:28:45;18.40;;;13.18;;
846;SDS011;410;48.954;9.474;2024-03-02T04:30:48;21.48;;;11.90;;
846;SDS011;410;48.954;9.474;2024-03-02T04:32:51;18.50;;;12.07;;
846;SDS011;410;48.954;9.474;2024-03-02T04:34:56;20.60;;;12.90;;
846;SDS011;410;48.954;9.474;2024-03-02T04:36:59;16.05;;;11.82;;
846;SDS011;410;48.954;9.474;2024-03-02T04:39:03;17.83;;;12.02;;
846;SDS011;410;48.954;9.474;2024-03-02T04:41:07;21.38;;;12.75;;
846;SDS011;410;48.954;9.474;2024-03-02T04:43:10;21.75;;;12.43;;
846;SDS011;410;48.954;9.474;2024-03-02T04:45:18;18.25;;;12.25;;
846;SDS011;410;48.954;9.474;2024-03-02T04:47:21;19.73;;;12.40;;
846;SDS011;410;48.954;9.474;2024-03-02T04:49:24;28.98;;;13.60;;
846;SDS011;410;48.954;9.474;2024-03-02T04:51:29;23.17;;;12.80;;
846;SDS011;410;48.954;9.474;2024-03-02T04:53:32;21.73;;;12.77;;
846;SDS011;410;48.954;9.474;2024-03-02T04:55:36;24.98;;;12.90;;
846;SDS011;410;48.954;9.474;2024-03-02T04:57:53;20.60;;;12.13;;
846;SDS011;410;48.954;9.474;2024-03-02T04:59:57;27.92;;;14.10;;
846;SDS011;410;48.954;9.474;2024-03-02T05:02:01;22.20;;;11.77;;
846;SDS011;410;48.954;9.474;2024-03-02T05:04:04;25.98;;;12.85;;
846;SDS011;410;48.954;9.474;2024-03-02T05:06:07;29.40;;;12.52;;
846;SDS011;410;48.954;9.474;2024-03-02T05:08:13;29.13;;;12.50;;
846;SDS011;410;48.954;9.474;2024-03-02T05:10:18;32.25;;;12.27;;
846;SDS011;410;48.954;9.474;2024-03-02T05:12:22;28.98;;;12.80;;
846;SDS011;410;48.954;9.474;2024-03-02T05:14:42;28.38;;;12.93;;
846;SDS011;410;48.954;9.474;2024-03-02T05:16:45;45.10;;;12.73;;
846;SDS011;410;48.954;9.474;2024-03-02T05:18:47;40.45;;;13.05;;
846;SDS011;410;48.954;9.474;2024-03-02T05:20:51;33.90;;;12.75;;
846;SDS011;410;48.954;9.474;2024-03-02T05:22:54;31.25;;;12.05;;
846;SDS011;410;48.954;9.474;2024-03-02T05:24:59;40.97;;;12.60;;
846;SDS011;410;48.954;9.474;2024-03-02T05:27:03;37.58;;;12.70;;
846;SDS011;410;48.954;9.474;2024-03-02T05:29:08;30.38;;;10.90;;
846;SDS011;410;48.954;9.474;2024-03-02T05:31:11;38.85;;;11.50;;
846;SDS011;410;48.954;9.474;2024-03-02T05:33:13;25.13;;;11.10;;
846;SDS011;410;48.954;9.474;2024-03-02T05:35:16;28.60;;;11.43;;
846;SDS011;410;48.954;9.474;2024-03-02T05:37:18;18.90;;;10.63;;
846;SDS011;410;48.954;9.474;2024-03-02T05:39:22;23.40;;;11.65;;
846;SDS011;410;48.954;9.474;2024-03-02T05:41:26;24.17;;;11.45;;
846;SDS011;410;48.954;9.474;2024-03-02T05:43:28;15.48;;;9.90;;
846;SDS011;410;48.954;9.474;2024-03-02T05:45:31;16.52;;;10.25;;
846;SDS011;410;48.954;9.474;2024-03-02T05:47:35;18.25;;;10.75;;
846;SDS011;410;48.954;9.474;2024-03-02T05:49:39;20.65;;;11.82;;
846;SDS011;410;48.954;9.474;2024-03-02T05:51:42;17.63;;;11.05;;
846;SDS011;410;48.954;9.474;2024-03-02T05:53:45;17.27;;;11.70;;
846;SDS011;410;48.954;9.474;2024-03-02T05:55:48;18.38;;;11.30;;
846;SDS011;410;48.954;9.474;2024-03-02T05:57:56;17.35;;;11.52;;
846;SDS011;410;48.954;9.474;2024-03-02T06:00:17;23.42;;;14.27;;
846;SDS011;410;48.954;9.474;2024-03-02T06:02:20;17.50;;;11.38;;
846;SDS011;410;48.954;9.474;2024-03-02T06:04:24;19.83;;;12.57;;
846;SDS011;410;48.954;9.474;2024-03-02T06:06:27;21.92;;;14.00;;
846;SDS011;410;48.954;9.474;2024-03-02T06:08:31;25.40;;;14.95;;
846;SDS011;410;48.954;9.474;2024-03-02T06:10:34;19.63;;;12.43;;
846;SDS011;410;48.954;9.474;2024-03-02T06:12:38;16.92;;;11.23;;
846;SDS011;410;48.954;9.474;2024-03-02T06:14:43;20.10;;;11.73;;
846;SDS011;410;48.954;9.474;2024-03-02T06:16:46;18.35;;;11.70;;
846;SDS011;410;48.954;9.474;2024-03-02T06:18:49;15.95;;;10.45;;
846;SDS011;410;48.954;9.474;2024-03-02T06:20:53;14.50;;;10.65;;
846;SDS011;410;48.954;9.474;2024-03-02T06:22:56;18.13;;;11.48;;
846;SDS011;410;48.954;9.474;2024-03-02T06:24:59;18.52;;;11.05;;
846;SDS011;410;48.954;9.474;2024-03-02T06:27:02;16.23;;;11.55;;
846;SDS011;410;48.954;9.474;2024-03-02T06:29:06;16.50;;;10.48;;
846;SDS011;410;48.954;9.474;2024-03-02T06:31:11;18.85;;;11.95;;
846;SDS011;410;48.954;9.474;2024-03-02T06:33:15;16.42;;;10.13;;
846;SDS011;410;48.954;9.474;2024-03-02T06:35:18;19.58;;;10.80;;
846;SDS011;410;48.954;9.474;2024-03-02T06:37:21;18.45;;;10.48;;
846;SDS011;410;48.954;9.474;2024-03-02T06:39:25;22.52;;;11.35;;
846;SDS011;410;48.954;9.474;2024-03-02T06:41:29;26.92;;;10.40;;
846;SDS011;410;48.954;9.474;2024-03-02T06:43:33;15.32;;;10.23;;
846;SDS011;410;48.954;9.474;2024-03-02T06:45:36;16.42;;;10.65;;
846;SDS011;410;48.954;9.474;2024-03-02T06:47:41;16.00;;;10.18;;
846;SDS011;410;48.954;9.474;2024-03-02T06:49:44;17.45;;;10.50;;
846;SDS011;410;48.954;9.474;2024-03-02T06:51:47;16.00;;;10.88;;
846;SDS011;410;48.954;9.474;2024-03-02T06:53:51;16.85;;;9.90;;
846;SDS011;410;48.954;9.474;2024-03-02T06:55:55;43.50;;;27.38;;
846;SDS011;410;48.954;9.474;2024-03-02T06:57:59;22.90;;;14.35;;
846;SDS011;410;48.954;9.474;2024-03-02T07:00:03;17.48;;;11.25;;
846;SDS011;410;48.954;9.474;2024-03-02T07:02:10;15.52;;;10.05;;
846;SDS011;410;48.954;9.474;2024-03-02T07:04:14;16.52;;;10.68;;
846;SDS011;410;48.954;9.474;2024-03-02T07:06:18;14.98;;;9.85;;
846;SDS011;410;48.954;9.474;2024-03-02T07:08:21;15.95;;;10.20;;
846;SDS011;410;48.954;9.474;2024-03-02T07:10:25;17.02;;;11.25;;
846;SDS011;410;48.954;9.474;2024-03-02T07:12:28;15.10;;;10.65;;
846;SDS011;410;48.954;9.474;2024-03-02T07:14:31;13.80;;;9.20;;
846;SDS011;410;48.954;9.474;2024-03-02T07:17:01;12.68;;;9.70;;
846;SDS011;410;48.954;9.474;2024-03-02T07:19:04;18.13;;;10.63;;
846;SDS011;410;48.954;9.474;2024-03-02T07:21:09;18.65;;;12.25;;
846;SDS011;410;48.954;9.474;2024-03-02T07:23:13;19.75;;;12.65;;
846;SDS011;410;48.954;9.474;2024-03-02T07:25:16;17.77;;;11.88;;
846;SDS011;410;48.954;9.474;2024-03-02T07:27:22;17.48;;;11.05;;
846;SDS011;410;48.954;9.474;2024-03-02T07:29:26;21.75;;;13.43;;
846;SDS011;410;48.954;9.474;2024-03-02T07:31:28;24.65;;;12.70;;
846;SDS011;410;48.954;9.474;2024-03-02T07:33:31;25.83;;;13.73;;
846;SDS011;410;48.954;9.474;2024-03-02T07:35:35;22.33;;;12.80;;
846;SDS011;410;48.954;9.474;2024-03-02T07:37:40;19.75;;;12.57;;
846;SDS011;410;48.954;9.474;2024-03-02T07:39:43;16.90;;;11.98;;
846;SDS011;410;48.954;9.474;2024-03-02T07:41:47;18.67;;;11.90;;
846;SDS011;410;48.954;9.474;2024-03-02T07:43:50;17.90;;;11.70;;
846;SDS011;410;48.954;9.474;2024-03-02T07:45:53;18.30;;;11.70;;
846;SDS011;410;48.954;9.474;2024-03-02T07:47:57;18.95;;;12.57;;
846;SDS011;410;48.954;9.474;2024-03-02T07:50:00;18.85;;;13.32;;
846;SDS011;410;48.954;9.474;2024-03-02T07:52:03;17.65;;;12.02;;
846;SDS011;410;48.954;9.474;2024-03-02T07:54:08;16.40;;;12.18;;
846;SDS011;410;48.954;9.474;2024-03-02T07:56:11;18.73;;;11.85;;
846;SDS011;410;48.954;9.474;2024-03-02T07:58:15;18.13;;;12.40;;
846;SDS011;410;48.954;9.474;2024-03-02T08:00:20;18.08;;;12.15;;
846;SDS011;410;48.954;9.474;2024-03-02T08:02:24;19.92;;;13.15;;
846;SDS011;410;48.954;9.474;2024-03-02T08:04:28;16.65;;;12.50;;
846;SDS011;410;48.954;9.474;2024-03-02T08:06:32;18.55;;;12.48;;
846;SDS011;410;48.954;9.474;2024-03-02T08:08:34;18.45;;;11.88;;
846;SDS011;410;48.954;9.474;2024-03-02T08:10:38;18.65;;;10.77;;
846;SDS011;410;48.954;9.474;2024-03-02T08:12:42;18.80;;;12.57;;
846;SDS011;410;48.954;9.474;2024-03-02T08:14:46;18.73;;;11.75;;
846;SDS011;410;48.954;9.474;2024-03-02T08:16:49;18.88;;;12.27;;
846;SDS011;410;48.954;9.474;2024-03-02T08:18:52;17.15;;;11.70;;
846;SDS011;410;48.954;9.474;2024-03-02T08:20:54;19.17;;;12.27;;
846;SDS011;410;48.954;9.474;2024-03-02T08:22:58;16.20;;;10.98;;
846;SDS011;410;48.954;9.474;2024-03-02T08:25:01;17.75;;;12.20;;
846;SDS011;410;48.954;9.474;2024-03-02T08:27:05;20.15;;;13.80;;
846;SDS011;410;48.954;9.474;2024-03-02T08:29:08;18.40;;;12.37;;
846;SDS011;410;48.954;9.474;2024-03-02T08:31:11;20.23;;;12.93;;
846;SDS011;410;48.954;9.474;2024-03-02T08:33:15;19.03;;;13.30;;
846;SDS011;410;48.954;9.474;2024-03-02T08:35:18;20.17;;;12.98;;
846;SDS011;410;48.954;9.474;2024-03-02T08:37:24;16.40;;;11.90;;
846;SDS011;410;48.954;9.474;2024-03-02T08:39:28;18.42;;;11.63;;
846;SDS011;410;48.954;9.474;2024-03-02T08:41:31;17.38;;;12.43;;
846;SDS011;410;48.954;9.474;2024-03-02T08:43:36;16.87;;;11.80;;
846;SDS011;410;48.954;9.474;2024-03-02T08:45:39;19.95;;;14.15;;
846;SDS011;410;48.954;9.474;2024-03-02T08:47:43;17.60;;;12.77;;
846;SDS011;410;48.954;9.474;2024-03-02T08:49:46;17.17;;;11.32;;
846;SDS011;410;48.954;9.474;2024-03-02T08:51:50;18.52;;;13.35;;
846;SDS011;410;48.954;9.474;2024-03-02T08:53:57;17.50;;;11.00;;
846;SDS011;410;48.954;9.474;2024-03-02T08:56:00;15.53;;;10.80;;
846;SDS011;410;48.954;9.474;2024-03-02T08:58:04;10.87;;;8.00;;
846;SDS011;410;48.954;9.474;2024-03-02T09:00:10;13.73;;;10.00;;
846;SDS011;410;48.954;9.474;2024-03-02T09:02:14;13.00;;;9.52;;
846;SDS011;410;48.954;9.474;2024-03-02T09:04:17;15.30;;;10.20;;
846;SDS011;410;48.954;9.474;2024-03-02T09:06:23;15.38;;;10.10;;
846;SDS011;410;48.954;9.474;2024-03-02T09:08:26;15.65;;;10.45;;
846;SDS011;410;48.954;9.474;2024-03-02T09:10:29;14.10;;;10.05;;
846;SDS011;410;48.954;9.474;2024-03-02T09:12:33;13.10;;;10.40;;
846;SDS011;410;48.954;9.474;2024-03-02T09:14:37;9.95;;;7.57;;
846;SDS011;410;48.954;9.474;2024-03-02T09:16:42;9.90;;;7.30;;
846;SDS011;410;48.954;9.474;2024-03-02T09:18:45;14.50;;;10.60;;
846;SDS011;410;48.954;9.474;2024-03-02T09:20:49;16.93;;;12.17;;
846;SDS011;410;48.954;9.474;2024-03-02T09:22:53;18.47;;;13.27;;
846;SDS011;410;48.954;9.474;2024-03-02T09:24:55;16.90;;;12.20;;
846;SDS011;410;48.954;9.474;2024-03-02T09:26:58;18.87;;;13.33;;
846;SDS011;410;48.954;9.474;2024-03-02T09:29:02;17.90;;;12.93;;
846;SDS011;410;48.954;9.474;2024-03-02T09:31:05;17.27;;;12.27;;
846;SDS011;410;48.954;9.474;2024-03-02T09:33:10;18.80;;;12.90;;
846;SDS011;410;48.954;9.474;2024-03-02T09:35:16;17.37;;;12.47;;
846;SDS011;410;48.954;9.474;2024-03-02T09:37:19;16.77;;;12.83;;
846;SDS011;410;48.954;9.474;2024-03-02T09:39:23;15.30;;;12.60;;
846;SDS011;410;48.954;9.474;2024-03-02T09:41:27;21.43;;;13.00;;
846;SDS011;410;48.954;9.474;2024-03-02T09:43:30;21.87;;;16.90;;
846;SDS011;410;48.954;9.474;2024-03-02T09:45:34;26.87;;;21.23;;
846;SDS011;410;48.954;9.474;2024-03-02T09:47:37;32.73;;;25.20;;
846;SDS011;410;48.954;9.474;2024-03-02T09:49:42;18.50;;;14.73;;
846;SDS011;410;48.954;9.474;2024-03-02T09:51:46;10.13;;;6.80;;
846;SDS011;410;48.954;9.474;2024-03-02T09:53:50;8.30;;;6.57;;
846;SDS011;410;48.954;9.474;2024-03-02T09:55:54;6.33;;;4.50;;
846;SDS011;410;48.954;9.474;2024-03-02T09:57:58;5.70;;;3.80;;
846;SDS011;410;48.954;9.474;2024-03-02T10:00:01;5.17;;;3.80;;
846;SDS011;410;48.954;9.474;2024-03-02T10:02:05;5.63;;;3.33;;
846;SDS011;410;48.954;9.474;2024-03-02T10:04:09;5.77;;;4.00;;
846;SDS011;410;48.954;9.474;2024-03-02T10:06:20;5.40;;;3.97;;
846;SDS011;410;48.954;9.474;2024-03-02T10:08:24;4.57;;;3.10;;
846;SDS011;410;48.954;9.474;2024-03-02T10:10:34;6.53;;;4.17;;
846;SDS011;410;48.954;9.474;2024-03-02T10:12:41;5.10;;;3.57;;
846;SDS011;410;48.954;9.474;2024-03-02T10:14:44;4.90;;;3.97;;
846;SDS011;410;48.954;9.474;2024-03-02T10:16:47;5.27;;;3.40;;
846;SDS011;410;48.954;9.474;2024-03-02T10:18:50;5.90;;;3.30;;
846;SDS011;410;48.954;9.474;2024-03-02T10:20:53;3.67;;;2.50;;
846;SDS011;410;48.954;9.474;2024-03-02T10:23:00;4.53;;;2.90;;
846;SDS011;410;48.954;9.474;2024-03-02T10:25:15;4.20;;;2.67;;
846;SDS011;410;48.954;9.474;2024-03-02T10:27:45;4.93;;;3.23;;
846;SDS011;410;48.954;9.474;2024-03-02T10:29:53;3.60;;;2.40;;
846;SDS011;410;48.954;9.474;2024-03-02T10:31:56;3.57;;;2.30;;
846;SDS011;410;48.954;9.474;2024-03-02T10:34:00;3.17;;;2.17;;
846;SDS011;410;48.954;9.474;2024-03-02T10:36:05;4.10;;;2.40;;
846;SDS011;410;48.954;9.474;2024-03-02T10:38:10;6.30;;;2.30;;
846;SDS011;410;48.954;9.474;2024-03-02T10:40:14;3.77;;;2.23;;
846;SDS011;410;48.954;9.474;2024-03-02T10:42:17;4.17;;;2.40;;
846;SDS011;410;48.954;9.474;2024-03-02T10:44:22;4.67;;;2.60;;
846;SDS011;410;48.954;9.474;2024-03-02T10:46:26;4.60;;;2.67;;
846;SDS011;410;48.954;9.474;2024-03-02T10:48:31;4.53;;;2.80;;
846;SDS011;410;48.954;9.474;2024-03-02T10:50:35;3.80;;;2.40;;
846;SDS011;410;48.954;9.474;2024-03-02T10:52:39;4.20;;;2.57;;
846;SDS011;410;48.954;9.474;2024-03-02T10:54:43;5.40;;;2.70;;
846;SDS011;410;48.954;9.474;2024-03-02T10:56:47;3.27;;;2.40;;
846;SDS011;410;48.954;9.474;2024-03-02T10:58:51;3.40;;;2.00;;
846;SDS011;410;48.954;9.474;2024-03-02T11:00:56;3.40;;;2.00;;
846;SDS011;410;48.954;9.474;2024-03-02T11:03:02;4.47;;;2.20;;
846;SDS011;410;48.954;9.474;2024-03-02T11:05:08;3.63;;;2.20;;
846;SDS011;410;48.954;9.474;2024-03-02T11:07:13;3.53;;;2.20;;
846;SDS011;410;48.954;9.474;2024-03-02T11:09:17;3.03;;;1.90;;
846;SDS011;410;48.954;9.474;2024-03-02T11:11:22;3.83;;;2.30;;
846;SDS011;410;48.954;9.474;2024-03-02T11:13:31;4.37;;;2.20;;
846;SDS011;410;48.954;9.474;2024-03-02T11:15:39;3.67;;;2.63;;
846;SDS011;410;48.954;9.474;2024-03-02T11:17:43;3.33;;;2.20;;
846;SDS011;410;48.954;9.474;2024-03-02T11:19:46;4.00;;;2.83;;
846;SDS011;410;48.954;9.474;2024-03-02T11:21:51;3.83;;;2.50;;
846;SDS011;410;48.954;9.474;2024-03-02T11:23:54;4.23;;;2.57;;
846;SDS011;410;48.954;9.474;2024-03-02T11:26:04;3.40;;;2.30;;
846;SDS011;410;48.954;9.474;2024-03-02T11:28:21;3.43;;;2.17;;
846;SDS011;410;48.954;9.474;2024-03-02T11:30:50;3.03;;;1.80;;
846;SDS011;410;48.954;9.474;2024-03-02T11:32:54;2.70;;;1.60;;
846;SDS011;410;48.954;9.474;2024-03-02T11:34:58;2.97;;;1.60;;
846;SDS011;410;48.954;9.474;2024-03-02T11:37:01;3.10;;;2.00;;
846;SDS011;410;48.954;9.474;2024-03-02T11:39:05;3.77;;;2.13;;
846;SDS011;410;48.954;9.474;2024-03-02T11:41:08;3.70;;;2.00;;
846;SDS011;410;48.954;9.474;2024-03-02T11:43:13;4.77;;;1.87;;
846;SDS011;410;48.954;9.474;2024-03-02T11:45:17;3.00;;;1.40;;
846;SDS011;410;48.954;9.474;2024-03-02T11:47:25;3.50;;;1.67;;
846;SDS011;410;48.954;9.474;2024-03-02T11:49:38;3.37;;;1.80;;
846;SDS011;410;48.954;9.474;2024-03-02T11:51:49;2.97;;;1.87;;
846;SDS011;410;48.954;9.474;2024-03-02T11:53:53;2.70;;;1.40;;
846;SDS011;410;48.954;9.474;2024-03-02T11:55:57;2.80;;;1.70;;
846;SDS011;410;48.954;9.474;2024-03-02T11:58:03;3.37;;;2.00;;
846;SDS011;410;48.954;9.474;2024-03-02T12:00:16;4.20;;;1.77;;
846;SDS011;410;48.954;9.474;2024-03-02T12:02:21;2.27;;;1.23;;
846;SDS011;410;48.954;9.474;2024-03-02T12:04:26;3.60;;;1.90;;
846;SDS011;410;48.954;9.474;2024-03-02T12:06:29;3.10;;;1.70;;
846;SDS011;410;48.954;9.474;2024-03-02T12:08:32;4.17;;;2.30;;
846;SDS011;410;48.954;9.474;2024-03-02T12:10:36;3.17;;;1.70;;
846;SDS011;410;48.954;9.474;2024-03-02T12:12:39;3.60;;;1.80;;
846;SDS011;410;48.954;9.474;2024-03-02T12:14:49;2.40;;;1.30;;
846;SDS011;410;48.954;9.474;2024-03-02T12:16:54;2.67;;;1.50;;
846;SDS011;410;48.954;9.474;2024-03-02T12:18:57;2.50;;;1.43;;
846;SDS011;410;48.954;9.474;2024-03-02T12:21:01;6.93;;;3.90;;
846;SDS011;410;48.954;9.474;2024-03-02T12:23:05;3.00;;;1.60;;
846;SDS011;410;48.954;9.474;2024-03-02T12:25:09;2.60;;;1.30;;
846;SDS011;410;48.954;9.474;2024-03-02T12:27:12;3.10;;;1.60;;
846;SDS011;410;48.954;9.474;2024-03-02T12:29:15;2.50;;;1.30;;
846;SDS011;410;48.954;9.474;2024-03-02T12:31:19;2.57;;;1.33;;
846;SDS011;410;48.954;9.474;2024-03-02T12:33:23;2.90;;;1.27;;
846;SDS011;410;48.954;9.474;2024-03-02T12:35:26;3.70;;;1.40;;
846;SDS011;410;48.954;9.474;2024-03-02T12:37:30;3.47;;;1.67;;
846;SDS011;410;48.954;9.474;2024-03-02T12:39:33;3.17;;;2.00;;
846;SDS011;410;48.954;9.474;2024-03-02T12:41:36;2.47;;;1.40;;
846;SDS011;410;48.954;9.474;2024-03-02T12:43:41;3.23;;;1.57;;
846;SDS011;410;48.954;9.474;2024-03-02T12:45:44;3.07;;;1.80;;
846;SDS011;410;48.954;9.474;2024-03-02T12:47:47;2.60;;;1.27;;
846;SDS011;410;48.954;9.474;2024-03-02T12:49:54;2.77;;;1.30;;
846;SDS011;410;48.954;9.474;2024-03-02T12:51:58;2.27;;;1.10;;
846;SDS011;410;48.954;9.474;2024-03-02T12:54:01;2.63;;;1.37;;
846;SDS011;410;48.954;9.474;2024-03-02T12:56:07;2.50;;;1.10;;
846;SDS011;410;48.954;9.474;2024-03-02T12:58:16;2.30;;;1.10;;